createdAt,value
2023-02-18T00:01:08.616Z,97794.07
2023-02-18T00:04:11.934Z,97804.02
2023-02-18T00:07:15.210Z,97809.10
2023-02-18T00:10:18.702Z,97818.73
2023-02-18T00:13:21.872Z,97862.13
2023-02-18T00:16:26.247Z,97856.77
2023-02-18T00:19:29.487Z,97877.69
2023-02-18T00:22:32.821Z,97881.82
2023-02-18T00:25:36.168Z,97867.34
2023-02-18T00:28:39.397Z,97871.63
2023-02-18T00:31:42.933Z,97884.63
2023-02-18T00:34:46.195Z,97881.64
2023-02-18T00:37:52.080Z,97884.21
2023-02-18T00:40:55.347Z,97893.75
2023-02-18T00:43:58.547Z,97896.09
2023-02-18T00:47:01.803Z,97897.02
2023-02-18T00:50:05.562Z,97904.67
2023-02-18T00:53:08.994Z,97897.40
2023-02-18T00:56:12.471Z,97886.68
2023-02-18T00:59:15.758Z,97889.71
2023-02-18T01:02:19.684Z,97896.28
2023-02-18T01:05:22.923Z,97886.56
2023-02-18T01:08:26.203Z,97891.20
2023-02-18T01:11:29.497Z,97885.64
2023-02-18T01:14:32.739Z,97888.36
2023-02-18T01:17:36.083Z,97882.03
2023-02-18T01:20:43.510Z,97884.59
2023-02-18T01:23:46.837Z,97886.39
2023-02-18T01:26:52.571Z,97893.34
2023-02-18T01:29:56.008Z,97894.38
2023-02-18T01:33:00.430Z,97895.07
2023-02-18T01:36:05.028Z,97893.64
2023-02-18T01:39:08.342Z,97900.05
2023-02-18T01:42:23.144Z,97894.48
2023-02-18T01:45:47.703Z,97900.42
2023-02-18T01:49:01.493Z,97893.62
2023-02-18T01:52:15.827Z,97901.67
2023-02-18T01:55:19.087Z,97901.28
2023-02-18T01:58:22.424Z,97897.20
2023-02-18T02:01:26.896Z,97895.78
2023-02-18T02:04:30.648Z,97897.80
2023-02-18T02:07:34.017Z,97901.79
2023-02-18T02:11:12.811Z,97903.34
2023-02-18T02:14:44.077Z,97904.36
2023-02-18T02:18:06.076Z,97906.44
2023-02-18T02:21:35.359Z,97906.88
2023-02-18T02:25:08.935Z,97907.88
2023-02-18T02:28:24.412Z,97906.95
2023-02-18T02:31:51.939Z,97912.95
2023-02-18T02:35:10.977Z,97918.33
2023-02-18T02:38:32.974Z,97914.65
2023-02-18T02:41:55.186Z,97917.45
2023-02-18T02:45:14.889Z,97929.79
2023-02-18T02:48:23.682Z,97930.24
2023-02-18T02:51:36.162Z,97934.93
2023-02-18T02:54:39.982Z,97942.20
2023-02-18T02:57:50.908Z,97947.59
2023-02-18T03:01:06.250Z,97949.38
2023-02-18T03:04:45.363Z,97954.61
2023-02-18T03:08:12.044Z,97956.25
2023-02-18T03:11:17.839Z,97965.17
2023-02-18T03:14:33.191Z,97967.05
2023-02-18T03:17:56.168Z,97966.74
2023-02-18T03:21:08.773Z,97969.96
2023-02-18T03:24:17.928Z,97972.91
2023-02-18T03:27:29.117Z,97974.23
2023-02-18T03:30:52.077Z,97978.73
2023-02-18T03:34:11.336Z,97978.09
2023-02-18T03:37:16.218Z,97979.73
2023-02-18T03:40:19.918Z,97980.88
2023-02-18T03:43:23.979Z,97985.33
2023-02-18T03:46:28.945Z,97995.48
2023-02-18T03:49:32.276Z,97997.50
2023-02-18T03:52:36.817Z,97997.43
2023-02-18T03:55:40.183Z,97995.80
2023-02-18T03:58:43.493Z,98002.15
2023-02-18T04:01:46.817Z,98005.88
2023-02-18T04:04:50.019Z,98012.92
2023-02-18T04:07:53.448Z,98010.24
2023-02-18T04:10:56.730Z,98007.81
2023-02-18T04:13:59.963Z,98011.95
2023-02-18T04:17:03.395Z,98015.30
2023-02-18T04:20:07.584Z,98016.54
2023-02-18T04:23:10.818Z,98011.66
2023-02-18T04:26:14.187Z,98018.64
2023-02-18T04:29:17.341Z,98020.50
2023-02-18T04:32:20.593Z,98027.44
2023-02-18T04:35:23.916Z,98028.52
2023-02-18T04:38:27.161Z,98030.28
2023-02-18T04:41:30.714Z,98026.43
2023-02-18T04:44:33.869Z,98024.54
2023-02-18T04:47:37.101Z,98032.40
2023-02-18T04:50:40.398Z,98032.30
2023-02-18T04:53:43.667Z,98025.89
2023-02-18T04:56:46.872Z,98018.07
2023-02-18T04:59:50.062Z,98024.52
2023-02-18T05:02:53.232Z,98022.63
2023-02-18T05:05:56.772Z,98030.05
2023-02-18T05:09:00.024Z,98029.11
2023-02-18T05:12:03.451Z,98031.91
2023-02-18T05:15:07.239Z,98031.05
2023-02-18T05:18:10.470Z,98031.58
2023-02-18T05:21:13.678Z,98037.69
2023-02-18T05:24:17.012Z,98034.86
2023-02-18T05:27:20.177Z,98031.12
2023-02-18T05:30:23.472Z,98034.50
2023-02-18T05:33:27.257Z,98034.97
2023-02-18T05:36:30.464Z,98037.92
2023-02-18T05:39:33.668Z,98044.79
2023-02-18T05:42:36.860Z,98041.82
2023-02-18T05:45:40.112Z,98039.39
2023-02-18T05:48:43.337Z,98040.27
2023-02-18T05:51:46.579Z,98046.83
2023-02-18T05:54:49.879Z,98043.48
2023-02-18T05:57:53.069Z,98046.98
2023-02-18T06:00:56.306Z,98046.46
2023-02-18T06:03:59.487Z,98045.08
2023-02-18T06:07:02.787Z,98051.34
2023-02-18T06:10:07.064Z,98047.27
2023-02-18T06:13:10.246Z,98057.38
2023-02-18T06:16:13.487Z,98057.69
2023-02-18T06:19:16.814Z,98061.06
2023-02-18T06:22:20.097Z,98068.41
2023-02-18T06:25:23.522Z,98069.04
2023-02-18T06:28:26.743Z,98073.02
2023-02-18T06:31:30.538Z,98078.83
2023-02-18T06:34:35.055Z,98069.14
2023-02-18T06:37:38.299Z,98074.01
2023-02-18T06:40:41.647Z,98071.41
2023-02-18T06:43:44.907Z,98077.36
2023-02-18T06:46:48.633Z,98081.20
2023-02-18T06:52:47.944Z,98083.29
2023-02-18T06:55:51.147Z,98079.84
2023-02-18T06:58:54.326Z,98083.38
2023-02-18T07:01:57.513Z,98084.07
2023-02-18T07:14:06.024Z,98080.19
2023-02-18T07:17:13.162Z,98074.80
2023-02-18T07:20:28.980Z,98073.41
2023-02-18T07:23:33.248Z,98072.16
2023-02-18T07:26:36.678Z,98074.52
2023-02-18T07:29:40.174Z,98074.21
2023-02-18T07:32:43.785Z,98080.23
2023-02-18T07:35:46.954Z,98081.50
2023-02-18T07:38:50.539Z,98075.02
2023-02-18T07:42:21.728Z,98081.77
2023-02-18T07:45:27.205Z,98087.55
2023-02-18T07:48:30.454Z,98085.92
2023-02-18T07:51:33.925Z,98094.92
2023-02-18T07:54:53.512Z,98092.83
2023-02-18T07:58:02.288Z,98094.95
2023-02-18T08:01:12.024Z,98102.69
2023-02-18T08:04:16.023Z,98097.15
2023-02-18T08:07:21.813Z,98100.02
2023-02-18T08:10:25.071Z,98097.09
2023-02-18T08:13:29.588Z,98096.00
2023-02-18T08:16:32.921Z,98093.21
2023-02-18T08:19:36.213Z,98091.58
2023-02-18T08:22:39.437Z,98091.11
2023-02-18T08:25:50.854Z,98096.81
2023-02-18T08:28:54.108Z,98094.16
2023-02-18T08:31:58.341Z,98087.13
2023-02-18T08:35:01.722Z,98092.52
2023-02-18T08:38:05.268Z,98093.36
2023-02-18T08:41:09.470Z,98095.58
2023-02-18T08:44:13.447Z,98105.05
2023-02-18T08:48:19.549Z,98098.95
2023-02-18T08:50:41.414Z,98102.72
2023-02-18T08:53:47.082Z,98099.78
2023-02-18T08:56:50.524Z,98099.58
2023-02-18T08:59:53.875Z,98102.33
2023-02-18T09:02:57.109Z,98103.90
2023-02-18T09:06:00.870Z,98093.32
2023-02-18T09:09:04.576Z,98099.08
2023-02-18T09:12:08.713Z,98093.69
2023-02-18T09:15:12.203Z,98090.90
2023-02-18T09:18:15.573Z,98085.84
2023-02-18T09:21:20.862Z,98094.85
2023-02-18T09:24:24.944Z,98097.55
2023-02-18T09:35:02.154Z,98093.59
2023-02-18T09:38:04.019Z,98089.07
2023-02-18T09:41:14.578Z,98084.30
2023-02-18T09:44:51.916Z,98077.83
2023-02-18T09:47:54.468Z,98079.55
2023-02-18T09:50:57.009Z,98072.66
2023-02-18T09:53:58.947Z,98069.55
2023-02-18T09:57:24.668Z,98084.73
2023-02-18T10:00:37.909Z,98082.05
2023-02-18T10:03:40.234Z,98078.14
2023-02-18T10:06:44.494Z,98086.58
2023-02-18T10:09:48.186Z,98086.81
2023-02-18T10:12:55.024Z,98089.46
2023-02-18T10:15:59.663Z,98088.50
2023-02-18T10:19:20.383Z,98084.89
2023-02-18T10:22:24.618Z,98082.00
2023-02-18T10:25:27.807Z,98073.59
2023-02-18T10:28:31.209Z,98072.90
2023-02-18T10:50:10.944Z,98066.57
2023-02-18T10:53:37.840Z,98061.98
2023-02-18T10:56:52.152Z,98065.71
2023-02-18T11:00:01.387Z,98059.82
2023-02-18T11:03:16.204Z,98057.31
2023-02-18T11:06:40.806Z,98052.38
2023-02-18T11:09:51.082Z,98051.75
2023-02-18T11:13:16.985Z,98043.10
2023-02-18T11:16:40.845Z,98034.92
2023-02-18T11:19:44.147Z,98026.73
2023-02-18T11:22:48.204Z,98022.09
2023-02-18T11:26:07.937Z,98023.95
2023-02-18T11:29:13.953Z,98019.53
2023-02-18T11:32:18.592Z,98020.70
2023-02-18T11:35:30.482Z,98010.55
2023-02-18T11:38:46.319Z,98002.13
2023-02-18T11:42:02.198Z,97997.22
2023-02-18T11:45:05.947Z,97989.17
2023-02-18T11:48:23.687Z,97985.05
2023-02-18T11:51:33.813Z,97971.85
2023-02-18T11:54:37.100Z,97967.88
2023-02-18T11:57:45.424Z,97965.14
2023-02-18T12:00:51.655Z,97962.95
2023-02-18T12:04:09.150Z,97961.53
2023-02-18T12:07:15.325Z,97966.19
2023-02-18T12:10:28.303Z,97960.31
2023-02-18T12:13:48.192Z,97959.04
2023-02-18T12:17:09.826Z,97950.50
2023-02-18T12:20:34.579Z,97948.59
2023-02-18T12:24:06.775Z,97943.79
2023-02-18T12:27:37.104Z,97935.60
2023-02-18T12:30:43.246Z,97929.95
2023-02-18T12:34:20.589Z,97925.41
2023-02-18T12:37:51.662Z,97914.14
2023-02-18T12:40:57.880Z,97897.93
2023-02-18T12:44:06.883Z,97884.95
2023-02-18T12:47:23.883Z,97873.31
2023-02-18T12:50:40.216Z,97861.75
2023-02-18T12:54:06.894Z,97859.56
2023-02-18T12:57:24.236Z,97847.28
2023-02-18T13:00:40.561Z,97835.48
2023-02-18T13:04:21.100Z,97832.88
2023-02-18T13:07:47.286Z,97823.81
2023-02-18T13:11:27.786Z,97799.88
2023-02-18T13:14:37.024Z,97794.02
2023-02-18T13:17:43.158Z,97789.94
2023-02-18T13:20:58.548Z,97783.30
2023-02-18T13:24:06.180Z,97780.01
2023-02-18T13:27:39.246Z,97768.13
2023-02-18T13:30:49.446Z,97760.32
2023-02-18T13:34:29.377Z,97751.80
2023-02-18T13:37:35.699Z,97746.16
2023-02-18T13:40:40.267Z,97738.22
2023-02-18T13:43:47.974Z,97734.08
2023-02-18T13:46:57.037Z,97726.83
2023-02-18T13:50:25.938Z,97727.55
2023-02-18T13:53:33.110Z,97715.42
2023-02-18T13:56:42.811Z,97700.42
2023-02-18T13:59:50.536Z,97695.48
2023-02-18T14:02:59.948Z,97685.25
2023-02-18T14:06:14.534Z,97675.95
2023-02-18T14:09:17.729Z,97669.61
2023-02-18T14:12:40.580Z,97655.15
2023-02-18T14:15:56.670Z,97655.30
2023-02-18T14:19:02.005Z,97644.43
2023-02-18T14:22:31.135Z,97632.95
2023-02-18T14:25:41.096Z,97618.33
2023-02-18T14:28:47.280Z,97602.70
2023-02-18T14:31:54.422Z,97591.98
2023-02-18T14:35:36.246Z,97585.10
2023-02-18T14:39:10.015Z,97571.74
2023-02-18T14:42:46.677Z,97559.48
2023-02-18T14:46:15.349Z,97555.71
2023-02-18T14:49:32.975Z,97547.42
2023-02-18T14:53:00.050Z,97538.83
2023-02-18T14:56:06.003Z,97526.96
2023-02-18T14:59:12.035Z,97514.86
2023-02-18T15:02:24.080Z,97512.13
2023-02-18T15:05:32.198Z,97504.45
2023-02-18T15:13:28.558Z,97483.92
2023-02-18T15:16:34.166Z,97486.90
2023-02-18T15:19:49.460Z,97475.80
2023-02-18T15:22:52.712Z,97469.96
2023-02-18T15:25:56.271Z,97463.47
2023-02-18T15:29:06.053Z,97458.08
2023-02-18T15:32:25.278Z,97454.89
2023-02-18T15:35:39.096Z,97455.58
2023-02-18T15:38:43.940Z,97449.66
2023-02-18T15:41:52.685Z,97445.20
2023-02-18T15:45:04.513Z,97443.09
2023-02-18T15:48:20.428Z,97439.11
2023-02-18T15:51:28.766Z,97428.78
2023-02-18T15:54:32.700Z,97425.28
2023-02-18T15:57:37.613Z,97423.08
2023-02-18T16:00:48.329Z,97415.73
2023-02-18T16:03:52.225Z,97413.54
2023-02-18T16:06:56.534Z,97409.22
2023-02-18T16:10:25.968Z,97408.21
2023-02-18T16:13:50.023Z,97408.44
2023-02-18T16:17:12.725Z,97408.42
2023-02-18T16:20:29.640Z,97399.44
2023-02-18T16:23:46.088Z,97396.52
2023-02-18T16:30:49.720Z,97406.04
2023-02-18T16:34:01.322Z,97411.23
2023-02-18T16:37:43.525Z,97408.88
2023-02-18T16:44:57.267Z,97411.04
2023-02-18T16:48:21.558Z,97408.99
2023-02-18T16:51:32.710Z,97407.04
2023-02-18T16:55:34.384Z,97403.19
2023-02-18T17:02:04.080Z,97421.93
2023-02-18T17:05:20.674Z,97419.67
2023-02-18T17:08:30.139Z,97429.52
2023-02-18T17:11:49.939Z,97422.92
2023-02-18T17:18:11.033Z,97411.34
2023-02-18T17:21:48.990Z,97415.79
2023-02-18T17:24:52.666Z,97421.19
2023-02-18T17:27:59.731Z,97418.51
2023-02-18T17:31:04.055Z,97421.09
2023-02-18T17:34:12.539Z,97427.35
2023-02-18T17:37:15.869Z,97428.20
2023-02-18T17:40:32.300Z,97437.98
2023-02-18T17:43:35.743Z,97443.61
2023-02-18T17:46:39.121Z,97447.05
2023-02-18T17:49:42.431Z,97456.03
2023-02-18T17:52:45.749Z,97467.69
2023-02-18T17:55:49.453Z,97456.97
2023-02-18T17:58:52.701Z,97449.67
2023-02-18T18:01:55.920Z,97455.16
2023-02-18T18:04:59.298Z,97470.97
2023-02-18T18:08:03.860Z,97478.63
2023-02-18T18:11:13.222Z,97480.73
2023-02-18T18:14:16.402Z,97477.54
2023-02-18T18:17:19.593Z,97482.46
2023-02-18T18:20:24.576Z,97481.45
2023-02-18T18:23:29.395Z,97481.28
2023-02-18T18:26:32.709Z,97486.77
2023-02-18T18:29:35.934Z,97491.14
2023-02-18T18:32:39.257Z,97491.53
2023-02-18T18:35:43.951Z,97491.05
2023-02-18T18:38:48.181Z,97501.67
2023-02-18T18:41:52.006Z,97508.73
2023-02-18T18:44:55.293Z,97504.34
2023-02-18T18:47:58.894Z,97502.85
2023-02-18T18:51:02.443Z,97508.87
2023-02-18T18:54:05.901Z,97506.77
2023-02-18T18:57:09.104Z,97513.41
2023-02-18T19:00:13.190Z,97511.45
2023-02-18T19:03:17.100Z,97523.34
2023-02-18T19:06:21.164Z,97522.33
2023-02-18T19:09:24.478Z,97526.16
2023-02-18T19:12:27.676Z,97525.39
2023-02-18T19:15:31.337Z,97528.13
2023-02-18T19:18:35.385Z,97517.55
2023-02-18T19:21:38.864Z,97519.59
2023-02-18T19:24:42.941Z,97524.91
2023-02-18T19:27:47.225Z,97520.85
2023-02-18T19:30:50.553Z,97523.98
2023-02-18T19:33:54.035Z,97536.73
2023-02-18T19:36:57.330Z,97538.77
2023-02-18T19:40:00.893Z,97541.83
2023-02-18T19:43:04.758Z,97549.73
2023-02-18T19:46:10.435Z,97551.77
2023-02-18T19:49:13.648Z,97556.46
2023-02-18T19:52:17.763Z,97563.65
2023-02-18T19:55:22.103Z,97565.77
2023-02-18T19:58:25.418Z,97569.21
2023-02-18T20:01:28.755Z,97577.12
2023-02-18T20:04:31.960Z,97581.59
2023-02-18T20:07:39.137Z,97586.66
2023-02-18T20:10:42.530Z,97601.54
2023-02-18T20:13:47.837Z,97627.21
2023-02-18T20:16:51.217Z,97644.82
2023-02-18T20:19:54.661Z,97638.42
2023-02-18T20:22:57.870Z,97635.61
2023-02-18T20:26:04.153Z,97640.53
2023-02-18T20:29:07.413Z,97642.80
2023-02-18T20:32:10.843Z,97647.34
2023-02-18T20:35:14.120Z,97656.17
2023-02-18T20:38:18.787Z,97666.19
2023-02-18T20:41:23.734Z,97662.11
2023-02-18T20:44:28.467Z,97668.26
2023-02-18T20:47:31.744Z,97675.37
2023-02-18T20:50:35.175Z,97685.27
2023-02-18T20:53:40.261Z,97692.00
2023-02-18T20:56:44.198Z,97691.67
2023-02-18T20:59:47.452Z,97701.21
2023-02-18T21:02:51.872Z,97707.30
2023-02-18T21:05:57.129Z,97710.98
2023-02-18T21:09:00.436Z,97717.77
2023-02-18T21:12:04.171Z,97717.91
2023-02-18T21:15:07.952Z,97725.34
2023-02-18T21:18:11.264Z,97721.59
2023-02-18T21:21:15.287Z,97727.14
2023-02-18T21:24:18.770Z,97726.90
2023-02-18T21:27:28.030Z,97724.41
2023-02-18T21:30:36.838Z,97728.77
2023-02-18T21:33:41.525Z,97731.05
2023-02-18T21:36:44.934Z,97733.70
2023-02-18T21:39:48.265Z,97743.31
2023-02-18T21:42:51.716Z,97748.79
2023-02-18T21:45:55.031Z,97758.95
2023-02-18T21:49:02.280Z,97770.52
2023-02-18T21:52:10.388Z,97774.80
2023-02-18T21:55:14.208Z,97783.09
2023-02-18T21:58:21.698Z,97788.08
2023-02-18T22:01:27.624Z,97792.84
2023-02-18T22:04:33.266Z,97800.57
2023-02-18T22:07:36.573Z,97802.52
2023-02-18T22:10:39.876Z,97798.08
2023-02-18T22:13:44.061Z,97794.95
2023-02-18T22:16:47.816Z,97794.86
2023-02-18T22:19:51.120Z,97798.62
2023-02-18T22:22:54.484Z,97798.40
2023-02-18T22:25:57.864Z,97803.35
2023-02-18T22:29:01.493Z,97808.09
2023-02-18T22:32:05.251Z,97813.24
2023-02-18T22:35:08.631Z,97818.00
2023-02-18T22:38:11.900Z,97828.55
2023-02-18T22:41:26.070Z,97833.23
2023-02-18T22:44:29.610Z,97840.25
2023-02-18T22:47:36.699Z,97841.79
2023-02-18T22:50:39.941Z,97848.88
2023-02-18T22:53:44.047Z,97843.02
2023-02-18T22:56:47.844Z,97848.06
2023-02-18T22:59:51.450Z,97858.73
2023-02-18T23:02:54.928Z,97865.29
2023-02-18T23:06:03.202Z,97867.85
2023-02-18T23:09:10.166Z,97863.39
2023-02-18T23:12:15.815Z,97867.84
2023-02-18T23:15:19.097Z,97857.91
2023-02-18T23:18:22.444Z,97866.52
2023-02-18T23:21:25.797Z,97858.31
2023-02-18T23:24:31.375Z,97869.56
2023-02-18T23:27:34.623Z,97879.75
2023-02-18T23:30:41.795Z,97884.91
2023-02-18T23:33:47.201Z,97891.11
2023-02-18T23:36:50.694Z,97889.46
2023-02-18T23:39:54.054Z,97884.06
2023-02-18T23:42:57.404Z,97880.39
2023-02-18T23:46:00.839Z,97882.96
2023-02-18T23:49:05.141Z,97878.65
2023-02-18T23:52:08.454Z,97878.80
2023-02-18T23:55:11.784Z,97878.25
2023-02-18T23:58:15.136Z,97886.92
